Time;durP1;ratioP1;P1;durP2;ratioP2;P2;SDS_P1;SDS_P2;PMS_P1;PMS_P2;Temp;Humidity;BMP_temperature;BMP_pressure;BME280_temperature;BME280_humidity;BME280_pressure;Samples;Min_cycle;Max_cycle;Signal;HPM_P1;HPM_P2
2022/02/17 00:00:33;;;;;;;14.80;2.90;;;;;;;9.24;100.00;98052.50;10199237;28;20072;-67
2022/02/17 00:05:29;;;;;;;12.82;2.53;;;;;;;9.19;100.00;98052.03;10186185;28;20103;-66
2022/02/17 00:10:27;;;;;;;23.38;4.40;;;;;;;9.13;100.00;98050.81;10186805;28;20096;-66
2022/02/17 00:15:28;;;;;;;21.90;3.53;;;;;;;9.00;100.00;98075.59;10195153;28;20120;-65
2022/02/17 00:20:26;;;;;;;16.13;3.08;;;;;;;8.94;100.00;98079.81;10186352;28;20124;-66
2022/02/17 00:25:22;;;;;;;20.77;3.85;;;;;;;8.96;100.00;98093.84;10181217;28;20054;-66
2022/02/17 00:30:19;;;;;;;14.90;2.03;;;;;;;8.98;100.00;98077.13;10171197;28;20100;-66
2022/02/17 00:35:15;;;;;;;18.92;2.45;;;;;;;8.97;100.00;98149.91;10193413;28;20070;-66
2022/02/17 00:40:12;;;;;;;23.50;3.50;;;;;;;9.00;100.00;98086.47;10204027;28;20077;-66
2022/02/17 00:45:08;;;;;;;15.35;3.53;;;;;;;8.98;100.00;98107.09;10187205;28;20046;-67
2022/02/17 00:50:05;;;;;;;20.55;3.30;;;;;;;8.96;100.00;98061.16;10192634;28;20463;-67
2022/02/17 00:55:03;;;;;;;22.45;3.70;;;;;;;8.96;100.00;98074.78;10197901;28;20072;-67
2022/02/17 01:00:00;;;;;;;14.10;2.33;;;;;;;8.89;100.00;98076.63;10199630;28;20042;-68
2022/02/17 01:04:56;;;;;;;17.67;3.15;;;;;;;8.90;100.00;98073.53;10211326;28;20768;-67
2022/02/17 01:09:52;;;;;;;18.38;3.63;;;;;;;8.89;100.00;98055.63;10196236;28;20121;-67
2022/02/17 01:14:49;;;;;;;16.27;2.33;;;;;;;8.98;100.00;98090.75;10198667;28;20049;-68
2022/02/17 01:19:45;;;;;;;18.10;3.58;;;;;;;8.96;100.00;98082.97;10201439;28;20042;-68
2022/02/17 01:24:42;;;;;;;23.67;3.55;;;;;;;8.77;100.00;98099.44;10202848;28;20042;-67
2022/02/17 01:29:38;;;;;;;11.98;3.45;;;;;;;8.56;100.00;98075.41;10207058;28;20460;-67
2022/02/17 01:34:35;;;;;;;17.00;2.45;;;;;;;8.47;100.00;98029.41;10187435;28;20046;-68
2022/02/17 01:39:32;;;;;;;18.45;2.47;;;;;;;8.59;100.00;98047.47;10188320;28;20120;-68
2022/02/17 01:44:29;;;;;;;16.45;2.58;;;;;;;8.68;100.00;98028.09;10193423;28;20141;-67
2022/02/17 01:49:25;;;;;;;18.67;2.88;;;;;;;8.81;100.00;98043.06;10184827;28;20046;-66
2022/02/17 01:54:22;;;;;;;20.92;3.67;;;;;;;8.88;100.00;98075.06;10186357;28;20120;-66
2022/02/17 01:59:18;;;;;;;17.63;3.10;;;;;;;8.90;100.00;98019.03;10171624;28;20514;-66
2022/02/17 02:04:16;;;;;;;16.52;3.22;;;;;;;8.91;100.00;98031.50;10185454;28;20054;-69
2022/02/17 02:09:16;;;;;;;16.95;3.28;;;;;;;8.89;100.00;98012.03;10182921;28;20046;-67
2022/02/17 02:14:14;;;;;;;17.35;2.13;;;;;;;8.89;100.00;98017.47;10195788;28;20049;-66
2022/02/17 02:19:13;;;;;;;16.60;3.17;;;;;;;8.92;100.00;98038.53;10209841;28;20053;-65
2022/02/17 02:24:10;;;;;;;10.98;2.65;;;;;;;8.89;100.00;98047.44;10195577;28;20050;-66
2022/02/17 02:29:07;;;;;;;12.57;2.45;;;;;;;8.77;100.00;98025.88;10191392;28;20486;-67
2022/02/17 02:34:04;;;;;;;15.40;2.50;;;;;;;8.63;100.00;98087.22;10195243;28;20731;-67
2022/02/17 02:39:00;;;;;;;15.30;2.35;;;;;;;8.52;100.00;98061.78;10194925;28;20141;-67
2022/02/17 02:43:58;;;;;;;19.70;3.08;;;;;;;8.45;100.00;98078.00;10186988;28;21612;-67
2022/02/17 02:48:54;;;;;;;17.17;3.22;;;;;;;8.39;100.00;98077.50;10194132;28;20073;-67
2022/02/17 02:53:51;;;;;;;16.88;3.03;;;;;;;8.29;100.00;98047.41;10199055;28;20527;-67
2022/02/17 02:58:47;;;;;;;19.35;3.42;;;;;;;8.25;100.00;98079.25;10198602;28;20058;-67
2022/02/17 03:03:48;;;;;;;33.10;4.30;;;;;;;8.22;100.00;98087.00;10189868;28;20511;-67
2022/02/17 03:08:44;;;;;;;18.83;3.58;;;;;;;8.16;100.00;98085.72;10187167;28;20070;-68
2022/02/17 03:13:41;;;;;;;20.90;3.55;;;;;;;8.11;100.00;98072.44;10191401;28;20138;-68
2022/02/17 03:18:37;;;;;;;23.27;3.88;;;;;;;8.08;100.00;98088.72;10176323;28;20578;-67
2022/02/17 03:23:34;;;;;;;19.08;2.65;;;;;;;7.98;100.00;98074.56;10202195;28;20113;-68
2022/02/17 03:28:30;;;;;;;14.48;2.72;;;;;;;7.96;100.00;98097.84;10182906;28;20124;-67
2022/02/17 03:33:27;;;;;;;14.38;2.83;;;;;;;7.96;100.00;98062.47;10200202;28;20516;-67
2022/02/17 03:38:23;;;;;;;22.58;3.65;;;;;;;7.90;100.00;98094.66;10184474;28;20050;-68
2022/02/17 03:43:20;;;;;;;19.95;2.38;;;;;;;7.93;100.00;98098.56;10192201;28;20108;-66
2022/02/17 03:48:16;;;;;;;17.40;3.05;;;;;;;7.95;100.00;98101.72;10180022;28;20100;-66
2022/02/17 03:53:15;;;;;;;21.35;3.53;;;;;;;7.93;100.00;98115.69;10191737;28;20526;-68
2022/02/17 04:03:29;;;;;;;29.05;3.65;;;;;;;7.89;100.00;98086.84;10190150;28;20084;-68
2022/02/17 04:08:26;;;;;;;16.17;3.45;;;;;;;7.87;100.00;98116.38;10171181;28;20095;-68
2022/02/17 04:13:23;;;;;;;19.58;2.75;;;;;;;7.82;100.00;98124.81;10191830;28;20100;-67
2022/02/17 04:18:19;;;;;;;23.15;3.88;;;;;;;7.82;100.00;98124.81;10188480;28;20053;-68
2022/02/17 04:23:16;;;;;;;22.95;3.28;;;;;;;7.79;100.00;98116.22;10206290;28;20045;-67
2022/02/17 04:28:13;;;;;;;18.20;4.00;;;;;;;7.81;100.00;98129.47;10185472;28;20073;-67
2022/02/17 04:33:09;;;;;;;13.50;2.72;;;;;;;7.72;100.00;98197.69;10192138;28;20081;-67
2022/02/17 04:38:06;;;;;;;24.08;4.57;;;;;;;7.64;100.00;98133.44;10183269;28;20100;-67
2022/02/17 04:43:02;;;;;;;22.63;3.70;;;;;;;7.50;100.00;98190.28;10169407;28;20462;-66
2022/02/17 04:48:05;;;;;;;17.65;2.75;;;;;;;7.51;100.00;98142.91;10170600;28;20870;-67
2022/02/17 04:53:02;;;;;;;;;;;;;;;7.49;100.00;98178.59;10200159;28;20492;-67
2022/02/17 04:57:58;;;;;;;22.08;3.50;;;;;;;7.37;100.00;98144.22;10180885;28;20374;-68
2022/02/17 05:02:55;;;;;;;15.80;3.15;;;;;;;7.27;100.00;98191.00;10189288;28;20092;-67
2022/02/17 05:07:51;;;;;;;24.25;3.35;;;;;;;7.13;100.00;98139.09;10181488;28;20137;-67
2022/02/17 05:12:47;;;;;;;15.73;1.98;;;;;;;7.07;100.00;98162.25;10185237;28;20038;-68
2022/02/17 05:17:44;;;;;;;19.85;3.70;;;;;;;7.05;100.00;98142.78;10156046;28;20054;-68
2022/02/17 05:22:42;;;;;;;17.40;3.13;;;;;;;6.82;100.00;98157.06;10185109;28;20124;-68
2022/02/17 05:27:40;;;;;;;24.67;4.93;;;;;;;6.81;100.00;98154.72;10183701;28;20053;-68
2022/02/17 05:32:40;;;;;;;29.83;4.18;;;;;;;6.75;100.00;98146.03;10188256;28;20058;-68
2022/02/17 05:37:38;;;;;;;16.85;3.67;;;;;;;6.69;100.00;98136.63;10172679;28;20084;-71
2022/02/17 05:42:35;;;;;;;21.55;3.25;;;;;;;6.60;100.00;98165.88;10193518;28;20058;-71
2022/02/17 05:47:32;;;;;;;26.38;4.03;;;;;;;6.39;100.00;98215.03;10186985;28;20069;-74
2022/02/17 05:52:29;;;;;;;23.55;4.07;;;;;;;6.28;100.00;98160.50;10188819;28;20046;-69
2022/02/17 05:57:25;;;;;;;22.88;3.28;;;;;;;6.19;100.00;98201.38;10169861;28;20054;-69
2022/02/17 06:02:22;;;;;;;19.58;3.85;;;;;;;6.06;100.00;98229.72;10169859;28;20089;-68
2022/02/17 06:07:18;;;;;;;24.65;3.97;;;;;;;5.92;100.00;98240.97;10172814;28;20115;-69
2022/02/17 06:12:15;;;;;;;27.80;4.15;;;;;;;5.88;100.00;98230.00;10189715;28;20123;-71
2022/02/17 06:17:13;;;;;;;24.58;7.40;;;;;;;5.86;100.00;98245.84;10171713;28;20050;-71
2022/02/17 06:22:10;;;;;;;24.08;5.18;;;;;;;5.77;100.00;98260.69;10156911;28;20491;-71
2022/02/17 06:27:07;;;;;;;26.25;4.70;;;;;;;5.73;100.00;98281.47;10158950;28;20116;-71
2022/02/17 06:32:04;;;;;;;21.17;3.58;;;;;;;5.69;100.00;98303.88;10160523;28;20457;-71
2022/02/17 06:37:00;;;;;;;26.20;4.60;;;;;;;5.66;100.00;98353.38;10186754;28;20081;-71
2022/02/17 06:41:57;;;;;;;19.70;3.50;;;;;;;5.66;100.00;98383.19;10195387;28;20070;-71
2022/02/17 06:46:53;;;;;;;24.05;4.22;;;;;;;5.68;100.00;98328.59;10165847;28;20159;-71
2022/02/17 06:51:50;;;;;;;22.23;5.30;;;;;;;5.78;100.00;98400.53;10169543;28;20124;-71
2022/02/17 06:56:46;;;;;;;20.90;3.35;;;;;;;5.76;100.00;98357.53;10183253;28;20455;-71
2022/02/17 07:01:43;;;;;;;36.97;5.38;;;;;;;5.73;100.00;98384.53;10185244;28;20038;-71
2022/02/17 07:06:39;;;;;;;37.47;5.15;;;;;;;5.74;100.00;98414.00;10170882;28;20459;-71
2022/02/17 07:11:36;;;;;;;32.00;5.07;;;;;;;5.78;100.00;98414.09;10179269;28;20480;-71
2022/02/17 07:16:34;;;;;;;22.08;3.05;;;;;;;5.76;100.00;98443.50;10179938;28;20141;-71
2022/02/17 07:21:30;;;;;;;32.60;3.83;;;;;;;5.74;100.00;98487.22;10162349;28;20049;-71
2022/02/17 07:26:27;;;;;;;29.65;3.38;;;;;;;5.66;100.00;98483.50;10158390;28;20137;-71
2022/02/17 07:31:23;;;;;;;21.80;3.17;;;;;;;5.58;100.00;98508.78;10154414;28;20101;-71
2022/02/17 07:36:20;;;;;;;22.00;2.58;;;;;;;5.56;100.00;98565.25;10173573;28;20575;-70
2022/02/17 07:41:17;;;;;;;12.23;2.28;;;;;;;5.43;100.00;98525.72;10153559;28;20050;-71
2022/02/17 07:46:14;;;;;;;23.90;2.85;;;;;;;5.33;100.00;98551.31;10159178;28;20062;-70
2022/02/17 07:51:12;;;;;;;13.63;3.53;;;;;;;5.34;100.00;98579.22;10153276;28;20046;-71
2022/02/17 07:56:09;;;;;;;9.35;1.35;;;;;;;5.36;100.00;98598.66;10162683;28;20466;-71
2022/02/17 08:01:11;;;;;;;;;;;;;;;5.36;100.00;98642.00;10154341;28;20046;-71
2022/02/17 08:06:08;;;;;;;26.08;4.13;;;;;;;5.33;100.00;98672.50;10163869;28;20016;-71
2022/02/17 08:11:24;;;;;;;21.70;4.25;;;;;;;5.28;100.00;98663.44;10154709;28;20047;-71
2022/02/17 08:16:23;;;;;;;15.98;2.63;;;;;;;5.26;100.00;98687.34;10165445;28;20046;-71
2022/02/17 08:21:19;;;;;;;21.40;4.40;;;;;;;5.23;100.00;98747.63;10160387;28;20077;-71
2022/02/17 08:26:16;;;;;;;29.70;4.70;;;;;;;5.24;100.00;98737.59;10169294;28;20089;-71
2022/02/17 08:31:12;;;;;;;23.40;4.13;;;;;;;5.18;100.00;98752.47;10173936;28;20054;-70
2022/02/17 08:36:09;;;;;;;25.33;3.83;;;;;;;5.23;100.00;98757.69;10181384;28;20178;-72
2022/02/17 08:41:06;;;;;;;22.48;4.30;;;;;;;5.30;100.00;98768.00;10192697;28;20074;-71
2022/02/17 08:46:03;;;;;;;14.57;3.00;;;;;;;5.32;100.00;98809.13;10177740;28;20045;-72
2022/02/17 08:51:00;;;;;;;14.68;3.20;;;;;;;5.36;100.00;98837.13;10194373;28;20050;-71
2022/02/17 08:55:56;;;;;;;27.80;3.38;;;;;;;5.39;100.00;98833.78;10186829;28;20049;-71
2022/02/17 09:00:53;;;;;;;18.13;3.28;;;;;;;5.39;100.00;98885.28;10164270;28;20129;-72
2022/02/17 09:05:49;;;;;;;21.88;3.15;;;;;;;5.35;100.00;98889.75;10195076;28;20104;-71
2022/02/17 09:11:06;;;;;;;26.98;4.00;;;;;;;5.32;100.00;98915.59;10199401;28;20141;-72
2022/02/17 09:16:03;;;;;;;23.48;3.17;;;;;;;5.27;100.00;98905.72;10190263;28;20108;-72
2022/02/17 09:21:01;;;;;;;16.60;2.78;;;;;;;5.30;100.00;98936.00;10198227;28;20539;-72
2022/02/17 09:25:57;;;;;;;16.85;2.75;;;;;;;5.27;100.00;99008.72;10177995;28;20101;-72
2022/02/17 09:30:54;;;;;;;14.63;1.95;;;;;;;5.17;100.00;99009.03;10192271;28;20038;-72
2022/02/17 09:35:53;;;;;;;18.33;2.70;;;;;;;5.11;100.00;99031.22;10185712;28;20050;-72
2022/02/17 09:40:49;;;;;;;12.95;1.80;;;;;;;5.00;100.00;99036.19;10168344;28;20062;-72
2022/02/17 09:45:49;;;;;;;12.90;2.47;;;;;;;4.93;100.00;99057.53;10183623;28;20043;-73
2022/02/17 09:50:45;;;;;;;16.23;2.47;;;;;;;4.93;100.00;99069.16;10186750;28;20053;-73
2022/02/17 09:55:42;;;;;;;15.75;2.03;;;;;;;4.90;100.00;99090.66;10187341;28;20070;-72
2022/02/17 10:00:39;;;;;;;8.68;1.45;;;;;;;4.65;100.00;99090.38;10189832;28;20042;-72
2022/02/17 10:05:35;;;;;;;19.90;2.40;;;;;;;4.89;100.00;99110.75;10181861;28;20567;-73
2022/02/17 10:10:40;;;;;;;20.55;2.20;;;;;;;5.06;100.00;99140.56;10159467;28;20081;-72
2022/02/17 10:15:38;;;;;;;18.80;1.80;;;;;;;5.14;100.00;99153.28;10165775;28;20042;-73
2022/02/17 10:20:51;;;;;;;9.52;1.33;;;;;;;5.00;100.00;99183.25;10158683;28;20046;-73
2022/02/17 10:26:04;;;;;;;15.48;2.45;;;;;;;5.04;100.00;99194.25;10163168;28;20459;-70
2022/02/17 10:31:02;;;;;;;21.63;2.40;;;;;;;5.27;100.00;99214.66;10158545;28;20520;-72
2022/02/17 10:36:00;;;;;;;13.82;1.90;;;;;;;5.33;100.00;99222.63;10183127;28;20759;-72
2022/02/17 10:40:56;;;;;;;17.35;2.10;;;;;;;5.20;100.00;99246.84;10199436;28;20548;-72
2022/02/17 10:45:53;;;;;;;8.07;1.83;;;;;;;5.17;100.00;99247.47;10183387;28;20101;-72
2022/02/17 10:51:10;;;;;;;18.73;3.22;;;;;;;5.25;100.00;99273.78;10157031;28;20436;-72
2022/02/17 10:56:09;;;;;;;10.70;1.75;;;;;;;5.31;100.00;99295.31;10164723;28;20073;-72
2022/02/17 11:01:07;;;;;;;18.30;3.40;;;;;;;5.37;100.00;99278.59;10156782;28;20094;-72
2022/02/17 11:06:04;;;;;;;20.10;4.38;;;;;;;5.42;100.00;99329.13;10159812;28;20046;-72
2022/02/17 11:11:02;;;;;;;14.35;2.67;;;;;;;5.43;100.00;99311.75;10155497;28;20042;-72
2022/02/17 11:16:00;;;;;;;11.02;2.10;;;;;;;5.52;100.00;99301.69;10162215;28;20050;-70
2022/02/17 11:20:57;;;;;;;14.82;2.58;;;;;;;5.53;100.00;99314.16;10158812;28;20046;-72
2022/02/17 11:25:54;;;;;;;15.05;1.70;;;;;;;5.41;100.00;99305.88;10176239;28;20042;-72
2022/02/17 11:30:58;;;;;;;9.57;1.13;;;;;;;5.35;100.00;99335.03;10165055;28;20050;-72
2022/02/17 11:36:08;;;;;;;7.45;1.02;;;;;;;5.20;100.00;99330.88;10196569;28;20467;-72
2022/02/17 11:41:12;;;;;;;16.65;1.88;;;;;;;5.08;100.00;99363.16;10155520;28;20054;-72
2022/02/17 11:46:10;;;;;;;10.97;3.30;;;;;;;5.09;100.00;99370.19;10171383;28;20412;-73
2022/02/17 11:51:14;;;;;;;8.55;1.10;;;;;;;5.06;100.00;99387.09;10177671;28;20100;-73
2022/02/17 11:56:17;;;;;;;8.45;1.20;;;;;;;5.05;100.00;99396.31;10190784;28;20555;-73
2022/02/17 12:01:21;;;;;;;11.60;1.98;;;;;;;4.92;100.00;99413.47;10194801;28;20053;-73
2022/02/17 12:06:32;;;;;;;8.43;1.13;;;;;;;4.80;100.00;99417.56;10181157;28;20496;-72
2022/02/17 12:11:31;;;;;;;8.30;1.30;;;;;;;4.62;100.00;99427.50;10194587;28;20076;-72
2022/02/17 12:16:39;;;;;;;4.55;0.93;;;;;;;4.66;100.00;99454.72;10185136;28;20046;-73
2022/02/17 12:21:37;;;;;;;7.25;0.85;;;;;;;4.54;100.00;99485.06;10154611;28;20512;-72
2022/02/17 12:26:41;;;;;;;9.07;1.10;;;;;;;4.45;100.00;99472.59;10172242;28;20101;-72
2022/02/17 12:31:38;;;;;;;11.02;2.08;;;;;;;4.33;100.00;99498.28;10154357;28;20069;-73
2022/02/17 12:36:37;;;;;;;4.97;0.73;;;;;;;4.16;100.00;99501.66;10184441;28;20042;-72
2022/02/17 12:41:34;;;;;;;6.93;1.00;;;;;;;4.15;100.00;99505.44;10193046;28;20105;-72
2022/02/17 12:46:31;;;;;;;11.00;0.90;;;;;;;4.15;100.00;99531.72;10182087;28;20144;-72
2022/02/17 12:51:31;;;;;;;5.20;0.98;;;;;;;4.11;100.00;99568.59;10181558;28;20641;-72
2022/02/17 12:56:35;;;;;;;6.20;0.98;;;;;;;3.95;100.00;99577.03;10182676;28;20507;-73
2022/02/17 13:01:33;;;;;;;10.18;1.25;;;;;;;3.74;100.00;99578.53;10183883;28;20157;-72
2022/02/17 13:06:30;;;;;;;8.77;1.60;;;;;;;3.56;100.00;99632.38;10161039;28;20051;-72
2022/02/17 13:11:30;;;;;;;13.68;2.55;;;;;;;3.63;100.00;99601.44;10162211;28;20416;-73
2022/02/17 13:16:27;;;;;;;10.10;1.65;;;;;;;3.63;100.00;99617.66;10146981;28;20046;-73
2022/02/17 13:21:24;;;;;;;9.95;1.08;;;;;;;3.68;100.00;99604.06;10192952;28;20049;-73
2022/02/17 13:26:29;;;;;;;11.45;1.38;;;;;;;3.74;100.00;99640.72;10189734;28;20132;-72
2022/02/17 13:31:32;;;;;;;6.28;0.60;;;;;;;3.64;100.00;99613.84;10193389;28;20753;-73
2022/02/17 13:36:29;;;;;;;6.53;0.52;;;;;;;3.58;100.00;99643.69;10176508;28;20500;-73
2022/02/17 13:41:26;;;;;;;3.30;0.35;;;;;;;3.61;100.00;99636.09;10171196;28;20164;-73
2022/02/17 13:46:23;;;;;;;5.90;0.82;;;;;;;3.59;100.00;99629.06;10189959;28;20097;-72
2022/02/17 13:51:20;;;;;;;11.52;1.45;;;;;;;3.64;100.00;99646.28;10176600;28;20467;-73
2022/02/17 13:56:23;;;;;;;10.57;2.00;;;;;;;3.53;100.00;99691.63;10194619;28;20523;-73
2022/02/17 14:01:20;;;;;;;5.00;0.98;;;;;;;3.00;100.00;99675.72;10182124;28;20470;-73
2022/02/17 14:06:21;;;;;;;10.52;1.23;;;;;;;3.12;100.00;99679.56;10190150;28;20077;-73
2022/02/17 14:11:19;;;;;;;8.38;0.88;;;;;;;3.32;100.00;99674.94;10197679;28;20050;-73
2022/02/17 14:16:16;;;;;;;6.20;0.70;;;;;;;3.47;100.00;99674.69;10194558;28;20054;-73
2022/02/17 14:21:12;;;;;;;20.98;2.05;;;;;;;3.67;100.00;99675.44;10197566;28;20104;-72
2022/02/17 14:26:09;;;;;;;17.05;1.60;;;;;;;3.74;100.00;99684.78;10189693;28;20045;-72
2022/02/17 14:31:06;;;;;;;21.77;2.25;;;;;;;3.94;100.00;99689.00;10197211;28;20100;-73
2022/02/17 14:36:04;;;;;;;39.22;6.15;;;;;;;4.25;100.00;99704.66;10194189;28;20419;-72
2022/02/17 14:41:02;;;;;;;30.08;2.90;;;;;;;4.73;100.00;99687.97;10195704;28;20045;-74
2022/02/17 14:45:58;;;;;;;39.92;3.85;;;;;;;4.90;100.00;99705.50;10193977;28;20061;-72
2022/02/17 14:50:56;;;;;;;24.92;4.35;;;;;;;4.99;100.00;99668.44;10157612;28;20054;-70
2022/02/17 14:55:56;;;;;;;20.13;4.30;;;;;;;5.07;100.00;99692.13;10193350;28;20085;-70
2022/02/17 15:00:55;;;;;;;25.77;3.50;;;;;;;4.98;100.00;99688.53;10170748;28;20096;-70
2022/02/17 15:05:52;;;;;;;24.67;3.30;;;;;;;4.98;100.00;99707.50;10192842;28;20038;-71
2022/02/17 15:10:49;;;;;;;23.50;2.72;;;;;;;4.61;100.00;99750.78;10172210;28;20439;-71
2022/02/17 15:15:46;;;;;;;22.52;3.25;;;;;;;4.28;100.00;99770.91;10190257;28;20132;-71
2022/02/17 15:20:42;;;;;;;11.88;2.53;;;;;;;4.14;100.00;99762.78;10164413;28;20096;-71
2022/02/17 15:25:40;;;;;;;16.45;3.08;;;;;;;4.20;100.00;99769.69;10168360;28;20043;-71
2022/02/17 15:30:36;;;;;;;24.30;3.42;;;;;;;4.29;100.00;99770.59;10195512;28;20057;-70
2022/02/17 15:35:33;;;;;;;25.17;3.28;;;;;;;4.39;100.00;99767.72;10199646;28;20042;-70
2022/02/17 15:40:30;;;;;;;29.70;3.92;;;;;;;4.48;100.00;99777.84;10195485;28;20041;-70
2022/02/17 15:45:27;;;;;;;35.33;4.68;;;;;;;4.58;100.00;99793.91;10189184;28;20073;-70
2022/02/17 15:50:26;;;;;;;20.17;4.22;;;;;;;4.70;100.00;99791.50;10155571;28;20046;-70
2022/02/17 15:55:24;;;;;;;18.23;2.40;;;;;;;4.69;100.00;99837.81;10178083;28;20065;-69
2022/02/17 16:00:21;;;;;;;20.33;2.42;;;;;;;4.23;100.00;99836.75;10157072;28;20060;-70
2022/02/17 16:05:18;;;;;;;22.92;2.85;;;;;;;4.12;100.00;99813.66;10188542;28;20112;-70
2022/02/17 16:10:15;;;;;;;8.75;2.45;;;;;;;3.98;100.00;99836.06;10154949;28;20050;-71
2022/02/17 16:15:13;;;;;;;22.85;3.22;;;;;;;3.97;100.00;99839.88;10181975;28;20053;-71
2022/02/17 16:20:11;;;;;;;17.40;2.53;;;;;;;4.12;100.00;99859.66;10181414;28;20050;-70
2022/02/17 16:25:09;;;;;;;19.55;2.35;;;;;;;4.17;100.00;99846.03;10185482;28;20180;-70
2022/02/17 16:30:12;;;;;;;35.70;4.50;;;;;;;4.21;100.00;99834.34;10188396;28;20050;-71
2022/02/17 16:35:09;;;;;;;26.70;3.28;;;;;;;4.33;100.00;99885.28;10202992;28;20404;-70
2022/02/17 16:40:07;;;;;;;26.42;3.17;;;;;;;4.42;100.00;99875.38;10156472;28;20085;-71
2022/02/17 16:45:04;;;;;;;20.35;3.75;;;;;;;4.51;100.00;99950.50;10169901;28;20081;-70
2022/02/17 16:50:01;;;;;;;23.75;3.50;;;;;;;4.51;100.00;99880.13;10157309;28;20460;-70
2022/02/17 16:54:57;;;;;;;32.58;3.70;;;;;;;4.47;100.00;99911.59;10178672;28;20053;-70
2022/02/17 17:00:00;;;;;;;20.40;2.47;;;;;;;4.52;100.00;99941.28;10162555;28;20060;-70
2022/02/17 17:04:56;;;;;;;31.17;4.40;;;;;;;4.52;100.00;99946.69;10172189;28;20054;-70
2022/02/17 17:09:53;;;;;;;17.00;3.47;;;;;;;4.55;100.00;99956.91;10187909;28;20088;-70
2022/02/17 17:14:49;;;;;;;24.40;4.53;;;;;;;4.60;100.00;99948.72;10194201;28;20049;-70
2022/02/17 17:19:47;;;;;;;49.00;5.93;;;;;;;4.67;100.00;99964.59;10197941;28;20038;-70
2022/02/17 17:24:43;;;;;;;24.00;5.05;;;;;;;4.68;100.00;99975.13;10190127;28;20137;-70
2022/02/17 17:29:40;;;;;;;11.63;2.88;;;;;;;4.82;100.00;99989.50;10180126;28;20075;-70
2022/02/17 17:34:36;;;;;;;29.30;3.72;;;;;;;4.87;100.00;99982.41;10205740;28;20053;-70
2022/02/17 17:39:34;;;;;;;23.00;3.85;;;;;;;4.91;100.00;99986.13;10166744;28;20495;-70
2022/02/17 17:45:25;;;;;;;25.77;3.33;;;;;;;4.90;100.00;100006.16;10197340;28;20458;-70
2022/02/17 17:49:47;;;;;;;13.70;3.15;;;;;;;4.94;100.00;99996.34;10180599;28;20050;-70
2022/02/17 17:54:43;;;;;;;28.83;3.38;;;;;;;4.87;100.00;100014.91;10197575;28;20046;-70
2022/02/17 17:59:40;;;;;;;21.92;3.20;;;;;;;4.84;100.00;100038.75;10163127;28;20476;-70
2022/02/17 18:04:36;;;;;;;27.17;3.60;;;;;;;4.80;100.00;100016.09;10169975;28;20054;-71
2022/02/17 18:09:33;;;;;;;34.70;4.65;;;;;;;4.72;100.00;100019.47;10191135;28;20069;-71
2022/02/17 18:14:29;;;;;;;29.45;4.25;;;;;;;4.72;100.00;100027.59;10192075;28;20046;-71
2022/02/17 18:19:26;;;;;;;24.65;3.10;;;;;;;4.80;100.00;100045.91;10166394;28;20050;-70
2022/02/17 18:24:22;;;;;;;15.18;3.85;;;;;;;4.91;100.00;100027.56;10168048;28;20424;-70
2022/02/17 18:29:42;;;;;;;25.08;4.18;;;;;;;4.93;100.00;100032.69;10157733;28;20068;-71
2022/02/17 18:34:38;;;;;;;22.50;4.68;;;;;;;5.00;100.00;100038.53;10179178;28;20069;-71
2022/02/17 18:39:35;;;;;;;33.05;5.32;;;;;;;5.02;100.00;100049.88;10166015;28;20119;-71
2022/02/17 18:49:49;;;;;;;22.25;3.72;;;;;;;5.06;100.00;100075.28;10187698;28;20527;-70
2022/02/17 18:54:45;;;;;;;29.77;5.05;;;;;;;5.07;100.00;100099.34;10198503;28;20046;-71
2022/02/17 18:59:42;;;;;;;22.17;3.00;;;;;;;5.08;100.00;100092.03;10193481;28;20042;-71
2022/02/17 19:04:38;;;;;;;27.20;3.92;;;;;;;5.04;100.00;100093.72;10195360;28;20446;-71
2022/02/17 19:09:35;;;;;;;21.52;2.92;;;;;;;5.06;100.00;100110.50;10193912;28;20130;-71
2022/02/17 19:14:31;;;;;;;24.20;3.60;;;;;;;5.06;100.00;100124.06;10194995;28;20069;-71
2022/02/17 19:19:27;;;;;;;27.98;3.85;;;;;;;5.10;100.00;100125.03;10163301;28;20425;-70
2022/02/17 19:24:24;;;;;;;26.90;3.78;;;;;;;5.10;100.00;100130.47;10165803;28;20081;-71
2022/02/17 19:29:21;;;;;;;16.48;3.63;;;;;;;5.10;100.00;100130.47;10186479;28;20038;-71
2022/02/17 19:34:19;;;;;;;29.90;3.60;;;;;;;5.11;100.00;100147.56;10204093;28;20104;-71
2022/02/17 19:39:16;;;;;;;15.75;3.10;;;;;;;5.10;100.00;100163.00;10186045;28;20124;-71
2022/02/17 19:44:17;;;;;;;34.10;4.10;;;;;;;5.10;100.00;100181.97;10182982;28;20583;-70
2022/02/17 19:49:14;;;;;;;19.27;3.35;;;;;;;5.10;100.00;100167.59;10185094;28;20045;-71
2022/02/17 19:54:11;;;;;;;18.48;2.33;;;;;;;5.10;100.00;100195.50;10193549;28;20077;-71
2022/02/17 19:59:08;;;;;;;20.55;3.50;;;;;;;5.10;100.00;100200.94;10166398;28;20463;-72
2022/02/17 20:04:05;;;;;;;27.80;4.25;;;;;;;5.13;100.00;100216.63;10187462;28;20576;-71
2022/02/17 20:09:02;;;;;;;25.38;3.13;;;;;;;5.15;100.00;100208.16;10159859;28;20062;-71
2022/02/17 20:14:01;;;;;;;19.58;3.38;;;;;;;4.87;100.00;100223.47;10190394;28;20045;-71
2022/02/17 20:18:57;;;;;;;22.77;4.10;;;;;;;4.82;100.00;100233.28;10183335;28;20038;-71
2022/02/17 20:23:58;;;;;;;27.33;3.80;;;;;;;4.85;100.00;100232.72;10190603;28;20049;-71
2022/02/17 20:28:55;;;;;;;21.05;3.53;;;;;;;4.82;100.00;100233.28;10168730;28;20068;-71
2022/02/17 20:33:51;;;;;;;27.10;3.92;;;;;;;4.84;100.00;100235.69;10174048;28;20656;-71
2022/02/17 20:38:48;;;;;;;23.13;3.50;;;;;;;4.88;100.00;100246.78;10161227;28;20042;-71
2022/02/17 20:43:46;;;;;;;23.38;5.47;;;;;;;4.92;100.00;100253.19;10167776;28;20042;-71
2022/02/17 20:52:05;;;;;;;25.13;4.93;;;;;;;4.98;100.00;100271.00;10172617;28;20042;-71
2022/02/17 20:54:13;;;;;;;14.68;2.83;;;;;;;5.03;100.00;100279.06;10190661;28;20074;-72
2022/02/17 20:59:09;;;;;;;16.42;3.13;;;;;;;5.02;100.00;100274.75;10193302;28;20049;-71
2022/02/17 21:04:17;;;;;;;12.68;2.35;;;;;;;5.03;100.00;100281.78;10201210;28;20049;-71
2022/02/17 21:09:14;;;;;;;26.75;3.75;;;;;;;5.04;100.00;100291.53;10190700;28;20046;-71
2022/02/17 21:14:11;;;;;;;29.38;3.95;;;;;;;5.01;100.00;100297.50;10196851;28;20050;-71
2022/02/17 21:19:07;;;;;;;24.83;3.72;;;;;;;5.01;100.00;100300.22;10174124;28;20112;-71
2022/02/17 21:24:04;;;;;;;17.67;4.00;;;;;;;4.94;100.00;100316.03;10200433;28;20392;-72
2022/02/17 21:29:01;;;;;;;17.38;3.58;;;;;;;4.94;100.00;100316.03;10188939;28;20038;-71
2022/02/17 21:33:59;;;;;;;30.83;4.05;;;;;;;4.92;100.00;100320.94;10205775;28;20060;-72
2022/02/17 21:38:56;;;;;;;30.98;4.50;;;;;;;4.77;100.00;100333.56;10194633;28;20539;-71
2022/02/17 21:43:53;;;;;;;17.52;3.10;;;;;;;4.24;100.00;100335.47;10199173;28;20535;-70
2022/02/17 21:48:49;;;;;;;27.70;3.92;;;;;;;4.30;100.00;100326.22;10172863;28;20121;-71
2022/02/17 21:54:06;;;;;;;28.05;2.83;;;;;;;4.23;100.00;100350.91;10168128;28;20066;-69
2022/02/17 21:59:03;;;;;;;22.52;3.83;;;;;;;4.33;100.00;100356.22;10169512;28;20100;-70
2022/02/17 22:04:00;;;;;;;18.70;4.22;;;;;;;4.48;100.00;100389.66;10183755;28;20050;-69
2022/02/17 22:08:57;;;;;;;17.50;3.20;;;;;;;4.48;100.00;100358.00;10189884;28;20112;-69
2022/02/17 22:13:55;;;;;;;25.35;3.33;;;;;;;4.52;100.00;100352.78;10197580;28;20061;-71
2022/02/17 22:18:51;;;;;;;30.63;3.30;;;;;;;4.54;100.00;100364.94;10188598;28;20080;-71
2022/02/17 22:23:48;;;;;;;22.63;3.58;;;;;;;4.59;100.00;100358.69;10198398;28;20569;-71
2022/02/17 22:28:44;;;;;;;17.83;2.85;;;;;;;4.69;100.00;100368.59;10187734;28;20042;-71
2022/02/17 22:33:41;;;;;;;20.20;3.05;;;;;;;4.77;100.00;100382.31;10176487;28;20084;-73
2022/02/17 22:38:38;;;;;;;23.23;5.20;;;;;;;4.76;100.00;100391.56;10174163;28;20049;-74
2022/02/17 22:43:34;;;;;;;27.05;4.15;;;;;;;4.82;100.00;100400.41;10182435;28;20078;-66
2022/02/17 22:48:30;;;;;;;34.75;3.85;;;;;;;4.83;100.00;100394.72;10192621;28;20038;-66
2022/02/17 22:53:27;;;;;;;25.63;3.47;;;;;;;4.83;100.00;100397.44;10197277;28;20065;-66
2022/02/17 22:58:25;;;;;;;22.25;3.55;;;;;;;4.87;100.00;100391.44;10196932;28;20465;-66